Time,TemperatureF,DewpointF,PressureIn,WindDirection,WindDirectionDegrees,WindSpeedMPH,WindSpeedGustMPH,Humidity,HourlyPrecipIn,Conditions,Clouds,dailyrainin,SoftwareType,DateUTC
2013-03-11 00:03:00,28.0,23.0,-100.00,NE,35,9.0,21.0,81,-99.99,,,-99.99,,2013-03-11 05:03:00,
2013-03-11 00:12:00,28.0,23.0,-100.00,NE,35,9.0,21.0,81,-99.99,,,-99.99,,2013-03-11 05:12:00,
2013-03-11 00:43:00,28.0,22.0,-100.00,North,5,11.0,21.0,80,-99.99,,,-99.99,,2013-03-11 05:43:00,
2013-03-11 00:52:00,28.0,22.0,-100.00,North,5,11.0,21.0,80,-99.99,,,-99.99,,2013-03-11 05:52:00,
2013-03-11 01:02:00,28.0,22.0,-100.00,North,5,11.0,21.0,80,-99.99,,,-99.99,,2013-03-11 06:02:00,
2013-03-11 01:12:00,28.0,22.0,-100.00,North,5,11.0,21.0,80,-99.99,,,-99.99,,2013-03-11 06:12:00,
2013-03-11 01:42:00,27.0,22.0,-100.00,North,10,10.0,17.0,80,-99.99,,,-99.99,,2013-03-11 06:42:00,
2013-03-11 01:53:00,27.0,22.0,-100.00,North,10,10.0,17.0,80,-99.99,,,-99.99,,2013-03-11 06:53:00,
2013-03-11 02:02:00,27.0,22.0,-100.00,North,10,10.0,17.0,80,-99.99,,,-99.99,,2013-03-11 07:02:00,
2013-03-11 02:12:00,27.0,22.0,-100.00,North,10,10.0,17.0,80,-99.99,,,-99.99,,2013-03-11 07:12:00,
2013-03-11 02:42:00,27.0,24.0,-100.00,North,10,12.0,21.0,88,-99.99,,,-99.99,,2013-03-11 07:42:00,
2013-03-11 02:52:00,27.0,24.0,-100.00,North,10,12.0,21.0,88,-99.99,,,-99.99,,2013-03-11 07:52:00,
2013-03-11 03:02:00,27.0,24.0,-100.00,North,10,12.0,21.0,88,-99.99,,,-99.99,,2013-03-11 08:02:00,
2013-03-11 03:12:00,27.0,24.0,-100.00,North,10,12.0,21.0,88,-99.99,,,-99.99,,2013-03-11 08:12:00,
2013-03-11 03:20:00,26.0,25.0,-100.00,North,0,9.0,17.0,94,-99.99,,,-99.99,,2013-03-11 08:20:00,
2013-03-11 03:42:00,26.0,25.0,-100.00,North,0,9.0,17.0,94,-99.99,,,-99.99,,2013-03-11 08:42:00,
2013-03-11 03:52:00,26.0,25.0,-100.00,North,0,9.0,17.0,94,-99.99,,,-99.99,,2013-03-11 08:52:00,
2013-03-11 04:02:00,26.0,25.0,-100.00,North,0,9.0,17.0,94,-99.99,,,-99.99,,2013-03-11 09:02:00,
2013-03-11 04:12:00,26.0,25.0,-100.00,North,0,9.0,17.0,94,-99.99,,,-99.99,,2013-03-11 09:12:00,
2013-03-11 04:21:00,26.0,25.0,-100.00,North,10,12.0,26.0,97,-99.99,,,-99.99,,2013-03-11 09:21:00,
2013-03-11 04:42:00,26.0,25.0,-100.00,North,10,12.0,26.0,97,-99.99,,,-99.99,,2013-03-11 09:42:00,
2013-03-11 04:52:00,26.0,25.0,-100.00,North,10,12.0,26.0,97,-99.99,,,-99.99,,2013-03-11 09:52:00,
2013-03-11 05:02:00,26.0,25.0,-100.00,North,10,12.0,26.0,97,-99.99,,,-99.99,,2013-03-11 10:02:00,
2013-03-11 05:12:00,26.0,25.0,-100.00,North,10,12.0,26.0,97,-99.99,,,-99.99,,2013-03-11 10:12:00,
2013-03-11 05:20:00,26.0,25.0,-100.00,North,0,11.0,22.0,98,-99.99,,,-99.99,,2013-03-11 10:20:00,
2013-03-11 05:42:00,26.0,25.0,-100.00,North,0,11.0,22.0,98,-99.99,,,-99.99,,2013-03-11 10:42:00,
2013-03-11 05:52:00,26.0,25.0,-100.00,North,0,11.0,22.0,98,-99.99,,,-99.99,,2013-03-11 10:52:00,
2013-03-11 06:02:00,26.0,25.0,-100.00,North,0,11.0,22.0,98,-99.99,,,-99.99,,2013-03-11 11:02:00,
2013-03-11 06:12:00,26.0,25.0,-100.00,North,0,11.0,22.0,98,-99.99,,,-99.99,,2013-03-11 11:12:00,
2013-03-11 06:43:00,26.0,25.0,-100.00,NNE,30,12.0,26.0,98,-99.99,,,-99.99,,2013-03-11 11:43:00,
2013-03-11 06:53:00,26.0,25.0,-100.00,NNE,30,12.0,26.0,98,-99.99,,,-99.99,,2013-03-11 11:53:00,
2013-03-11 07:02:00,26.0,25.0,-100.00,NNE,30,12.0,26.0,98,-99.99,,,-99.99,,2013-03-11 12:02:00,
2013-03-11 07:12:00,26.0,25.0,-100.00,NNE,30,12.0,26.0,98,-99.99,,,-99.99,,2013-03-11 12:12:00,
2013-03-11 07:22:00,25.0,25.0,-100.00,NNE,20,13.0,24.0,99,-99.99,,,-99.99,,2013-03-11 12:22:00,
2013-03-11 07:43:00,25.0,25.0,-100.00,NNE,20,13.0,24.0,99,-99.99,,,-99.99,,2013-03-11 12:43:00,
2013-03-11 07:53:00,25.0,25.0,-100.00,NNE,20,13.0,24.0,99,-99.99,,,-99.99,,2013-03-11 12:53:00,
2013-03-11 08:02:00,25.0,25.0,-100.00,NNE,20,13.0,24.0,99,-99.99,,,-99.99,,2013-03-11 13:02:00,
2013-03-11 08:12:00,25.0,25.0,-100.00,NNE,20,13.0,24.0,99,-99.99,,,-99.99,,2013-03-11 13:12:00,
2013-03-11 08:43:00,26.0,25.0,-100.00,NNE,15,7.0,20.0,99,-99.99,,,-99.99,,2013-03-11 13:43:00,
2013-03-11 08:53:00,26.0,25.0,-100.00,NNE,15,7.0,20.0,99,-99.99,,,-99.99,,2013-03-11 13:53:00,
2013-03-11 09:02:00,26.0,25.0,-100.00,NNE,15,7.0,20.0,99,-99.99,,,-99.99,,2013-03-11 14:02:00,
2013-03-11 09:12:00,26.0,25.0,-100.00,NNE,15,7.0,20.0,99,-99.99,,,-99.99,,2013-03-11 14:12:00,
2013-03-11 09:20:00,25.0,25.0,-100.00,NNE,20,10.0,20.0,99,-99.99,,,-99.99,,2013-03-11 14:20:00,
2013-03-11 09:43:00,25.0,25.0,-100.00,NNE,20,10.0,20.0,99,-99.99,,,-99.99,,2013-03-11 14:43:00,
2013-03-11 09:53:00,25.0,25.0,-100.00,NNE,20,10.0,20.0,99,-99.99,,,-99.99,,2013-03-11 14:53:00,
2013-03-11 10:02:00,25.0,25.0,-100.00,NNE,20,10.0,20.0,99,-99.99,,,-99.99,,2013-03-11 15:02:00,
2013-03-11 10:12:00,25.0,25.0,-100.00,NNE,20,10.0,20.0,99,-99.99,,,-99.99,,2013-03-11 15:12:00,
2013-03-11 10:20:00,25.0,24.0,-100.00,NNE,30,7.0,19.0,99,-99.99,,,-99.99,,2013-03-11 15:20:00,
2013-03-11 10:43:00,25.0,24.0,-100.00,NNE,30,7.0,19.0,99,-99.99,,,-99.99,,2013-03-11 15:43:00,
2013-03-11 10:53:00,25.0,24.0,-100.00,NNE,30,7.0,19.0,99,-99.99,,,-99.99,,2013-03-11 15:53:00,
2013-03-11 11:02:00,25.0,24.0,-100.00,NNE,30,7.0,19.0,99,-99.99,,,-99.99,,2013-03-11 16:02:00,
2013-03-11 11:12:00,25.0,24.0,-100.00,NNE,30,7.0,19.0,99,-99.99,,,-99.99,,2013-03-11 16:12:00,
2013-03-11 11:21:00,24.0,23.0,-100.00,North,0,12.0,17.0,97,-99.99,,,-99.99,,2013-03-11 16:21:00,
2013-03-11 11:43:00,24.0,23.0,-100.00,North,0,12.0,17.0,97,-99.99,,,-99.99,,2013-03-11 16:43:00,
2013-03-11 11:52:00,24.0,23.0,-100.00,North,0,12.0,17.0,97,-99.99,,,-99.99,,2013-03-11 16:52:00,
2013-03-11 12:02:00,24.0,23.0,-100.00,North,0,12.0,17.0,97,-99.99,,,-99.99,,2013-03-11 17:02:00,
2013-03-11 12:14:00,24.0,23.0,-100.00,North,0,12.0,17.0,97,-99.99,,,-99.99,,2013-03-11 17:14:00,
2013-03-11 12:42:00,24.0,23.0,-100.00,North,0,10.0,16.0,97,-99.99,,,-99.99,,2013-03-11 17:42:00,
2013-03-11 12:53:00,24.0,23.0,-100.00,North,0,10.0,16.0,97,-99.99,,,-99.99,,2013-03-11 17:53:00,
2013-03-11 13:02:00,24.0,23.0,-100.00,North,0,10.0,16.0,97,-99.99,,,-99.99,,2013-03-11 18:02:00,
2013-03-11 13:12:00,24.0,23.0,-100.00,North,0,10.0,16.0,97,-99.99,,,-99.99,,2013-03-11 18:12:00,
2013-03-11 13:20:00,24.0,23.0,-100.00,NNW,335,11.0,16.0,95,-99.99,,,-99.99,,2013-03-11 18:20:00,
2013-03-11 13:43:00,24.0,23.0,-100.00,NNW,335,11.0,16.0,95,-99.99,,,-99.99,,2013-03-11 18:43:00,
2013-03-11 13:53:00,24.0,23.0,-100.00,NNW,335,11.0,16.0,95,-99.99,,,-99.99,,2013-03-11 18:53:00,
2013-03-11 14:02:00,24.0,23.0,-100.00,NNW,335,11.0,16.0,95,-99.99,,,-99.99,,2013-03-11 19:02:00,
2013-03-11 14:12:00,24.0,23.0,-100.00,NNW,335,11.0,16.0,95,-99.99,,,-99.99,,2013-03-11 19:12:00,
2013-03-11 15:22:00,25.0,20.0,-100.00,North,5,11.0,16.0,84,-99.99,,,-99.99,,2013-03-11 20:22:00,
2013-03-11 15:32:00,25.0,20.0,-100.00,North,5,11.0,16.0,84,-99.99,,,-99.99,,2013-03-11 20:32:00,
2013-03-11 15:43:00,25.0,20.0,-100.00,North,5,11.0,16.0,84,-99.99,,,-99.99,,2013-03-11 20:43:00,
2013-03-11 15:52:00,25.0,20.0,-100.00,North,5,11.0,16.0,84,-99.99,,,-99.99,,2013-03-11 20:52:00,
2013-03-11 17:43:00,25.0,19.0,-100.00,NW,325,5.0,12.0,80,-99.99,,,-99.99,,2013-03-11 22:43:00,
2013-03-11 17:53:00,25.0,19.0,-100.00,NW,325,5.0,12.0,80,-99.99,,,-99.99,,2013-03-11 22:53:00,
2013-03-11 18:03:00,25.0,19.0,-100.00,NW,325,5.0,12.0,80,-99.99,,,-99.99,,2013-03-11 23:03:00,
2013-03-11 18:12:00,25.0,19.0,-100.00,NW,325,5.0,12.0,80,-99.99,,,-99.99,,2013-03-11 23:12:00,
2013-03-11 19:12:00,24.0,18.0,-100.00,NW,320,6.0,9.0,77,-99.99,,,-99.99,,2013-03-12 00:12:00,
2013-03-11 19:23:00,24.0,18.0,-100.00,NW,320,6.0,9.0,77,-99.99,,,-99.99,,2013-03-12 00:23:00,
2013-03-11 19:33:00,24.0,18.0,-100.00,NW,320,6.0,9.0,77,-99.99,,,-99.99,,2013-03-12 00:33:00,
2013-03-11 19:42:00,24.0,18.0,-100.00,NW,320,6.0,9.0,77,-99.99,,,-99.99,,2013-03-12 00:42:00,
2013-03-11 20:42:00,23.0,18.0,-100.00,NW,325,3.0,9.0,80,-99.99,,,-99.99,,2013-03-12 01:42:00,
2013-03-11 20:52:00,23.0,18.0,-100.00,NW,325,3.0,9.0,80,-99.99,,,-99.99,,2013-03-12 01:52:00,
2013-03-11 21:02:00,23.0,18.0,-100.00,NW,325,3.0,9.0,80,-99.99,,,-99.99,,2013-03-12 02:02:00,
2013-03-11 21:12:00,23.0,18.0,-100.00,NW,325,3.0,9.0,80,-99.99,,,-99.99,,2013-03-12 02:12:00,
2013-03-11 22:12:00,22.0,18.0,-100.00,North,5,2.0,4.0,82,-99.99,,,-99.99,,2013-03-12 03:12:00,
2013-03-11 22:22:00,22.0,18.0,-100.00,North,5,2.0,4.0,82,-99.99,,,-99.99,,2013-03-12 03:22:00,
2013-03-11 22:32:00,22.0,18.0,-100.00,North,5,2.0,4.0,82,-99.99,,,-99.99,,2013-03-12 03:32:00,
2013-03-11 22:42:00,22.0,18.0,-100.00,North,5,2.0,4.0,82,-99.99,,,-99.99,,2013-03-12 03:42:00,
2013-03-11 23:43:00,22.0,18.0,-100.00,West,280,2.0,6.0,85,-99.99,,,-99.99,,2013-03-12 04:43:00,
2013-03-11 23:52:00,22.0,18.0,-100.00,West,280,2.0,6.0,85,-99.99,,,-99.99,,2013-03-12 04:52:00,